Time;durP1;ratioP1;P1;durP2;ratioP2;P2;SDS_P1;SDS_P2;PMS_P1;PMS_P2;Temp;Humidity;BMP_temperature;BMP_pressure;BME280_temperature;BME280_humidity;BME280_pressure;Samples;Min_cycle;Max_cycle;Signal;HPM_P1;HPM_P2
2023/07/14 00:01:49;;;;;;;3.00;2.80;;;18.90;1.00;;;;;;4988776;28;21002;-86
2023/07/14 00:04:22;;;;;;;2.90;2.70;;;18.90;1.00;;;;;;4985672;28;20911;-85
2023/07/14 00:06:49;;;;;;;2.77;2.57;;;18.90;1.00;;;;;;5024799;28;20459;-86
2023/07/14 00:09:24;;;;;;;3.70;3.10;;;18.90;1.00;;;;;;5023421;28;21719;-86
2023/07/14 00:11:51;;;;;;;5.73;2.80;;;18.80;1.00;;;;;;5023587;28;20523;-87
2023/07/14 00:14:18;;;;;;;3.20;2.40;;;18.80;1.00;;;;;;5013418;28;20513;-87
2023/07/14 00:16:47;;;;;;;4.37;2.70;;;18.70;1.00;;;;;;5027797;28;20415;-85
2023/07/14 00:19:17;;;;;;;3.10;2.80;;;18.70;1.00;;;;;;5028496;28;20464;-87
2023/07/14 00:21:44;;;;;;;2.70;2.50;;;18.70;1.00;;;;;;5029293;28;20464;-87
2023/07/14 00:24:14;;;;;;;3.00;2.80;;;18.70;1.00;;;;;;5025542;28;20486;-87
2023/07/14 00:26:42;;;;;;;2.70;2.50;;;18.60;1.00;;;;;;5021643;28;20458;-87
2023/07/14 00:29:34;;;;;;;5.87;3.07;;;18.50;1.00;;;;;;5025278;28;20430;-87
2023/07/14 00:32:03;;;;;;;2.70;2.50;;;18.50;1.00;;;;;;5026325;28;21044;-86
2023/07/14 00:34:30;;;;;;;3.40;3.20;;;18.50;1.00;;;;;;5025563;28;20467;-82
2023/07/14 00:36:57;;;;;;;3.97;3.10;;;18.40;1.00;;;;;;5029342;28;21076;-83
2023/07/14 00:42:07;;;;;;;2.90;2.70;;;18.50;1.00;;;;;;5027400;28;20452;-83
2023/07/14 00:44:35;;;;;;;4.90;2.90;;;18.50;1.00;;;;;;5026973;28;20561;-84
2023/07/14 00:47:17;;;;;;;2.80;2.60;;;18.50;1.00;;;;;;5032886;28;20539;-83
2023/07/14 00:49:45;;;;;;;4.13;2.77;;;18.40;1.00;;;;;;5041458;28;20445;-83
2023/07/14 00:52:18;;;;;;;3.97;2.60;;;18.40;1.00;;;;;;5041774;28;20518;-83
2023/07/14 00:54:52;;;;;;;4.23;3.17;;;18.40;1.00;;;;;;5041092;28;20505;-83
2023/07/14 00:57:23;;;;;;;3.33;3.03;;;18.50;1.00;;;;;;5041099;28;20441;-83
2023/07/14 00:59:53;;;;;;;2.60;2.40;;;18.50;1.00;;;;;;5041724;28;20497;-84
2023/07/14 01:02:24;;;;;;;4.90;3.43;;;18.50;1.00;;;;;;5041471;28;20561;-83
2023/07/14 01:23:32;;;;;;;4.93;3.20;;;18.30;1.00;;;;;;5027828;28;20419;-83
2023/07/14 01:26:14;;;;;;;7.13;3.93;;;18.20;1.00;;;;;;5032715;28;20455;-82
2023/07/14 01:28:49;;;;;;;3.23;2.87;;;18.10;1.00;;;;;;5031002;28;20459;-83
2023/07/14 01:31:21;;;;;;;3.90;3.10;;;18.10;1.00;;;;;;5028919;28;20513;-82
2023/07/14 01:33:52;;;;;;;4.17;3.77;;;18.10;1.00;;;;;;5027680;28;20450;-83
2023/07/14 01:36:23;;;;;;;3.50;3.20;;;18.10;1.00;;;;;;5031239;28;20887;-83
2023/07/14 01:38:50;;;;;;;4.57;3.13;;;18.10;1.00;;;;;;5025339;28;20481;-82
2023/07/14 01:41:17;;;;;;;2.80;2.60;;;18.00;1.00;;;;;;5029549;28;20558;-83
2023/07/14 01:43:46;;;;;;;4.13;3.53;;;18.10;1.00;;;;;;5029714;28;20448;-83
2023/07/14 01:46:22;;;;;;;4.43;4.13;;;18.10;1.00;;;;;;5030465;28;20478;-84
2023/07/14 01:49:06;;;;;;;4.20;3.47;;;18.10;1.00;;;;;;5031547;28;20433;-82
2023/07/14 01:51:38;;;;;;;3.80;3.33;;;18.10;1.00;;;;;;5028099;28;22005;-83
2023/07/14 01:54:11;;;;;;;3.90;3.50;;;18.10;1.00;;;;;;5030212;28;20426;-82
2023/07/14 01:56:43;;;;;;;4.23;3.87;;;18.10;1.00;;;;;;5010824;28;20412;-82
2023/07/14 01:59:19;;;;;;;4.87;4.00;;;18.10;1.00;;;;;;5024891;28;20438;-83
2023/07/14 02:01:49;;;;;;;3.97;3.67;;;18.00;1.00;;;;;;5027596;28;20489;-83
2023/07/14 02:04:21;;;;;;;5.10;3.80;;;18.00;1.00;;;;;;5025567;28;20457;-82
2023/07/14 02:06:49;;;;;;;4.57;4.17;;;17.90;1.00;;;;;;5028449;28;21200;-83
2023/07/14 02:09:18;;;;;;;5.60;3.73;;;17.90;1.00;;;;;;5026426;28;20480;-82
2023/07/14 02:11:56;;;;;;;7.57;4.90;;;17.80;1.00;;;;;;5035335;28;20463;-83
2023/07/14 02:14:28;;;;;;;5.27;4.50;;;17.80;1.00;;;;;;5029815;28;21474;-81
2023/07/14 02:17:09;;;;;;;5.53;4.63;;;17.80;1.00;;;;;;5028033;28;20557;-83
2023/07/14 02:19:37;;;;;;;6.83;5.10;;;17.80;1.00;;;;;;5025585;28;20445;-82
2023/07/14 02:22:05;;;;;;;4.90;4.30;;;17.80;1.00;;;;;;5032645;28;20422;-82
2023/07/14 02:24:32;;;;;;;6.30;4.80;;;17.80;1.00;;;;;;5030786;28;20834;-83
2023/07/14 02:27:06;;;;;;;5.70;3.60;;;17.80;1.00;;;;;;5028288;28;20421;-83
2023/07/14 02:29:34;;;;;;;4.93;4.03;;;17.80;1.00;;;;;;5036386;28;21240;-83
2023/07/14 02:32:09;;;;;;;5.80;5.37;;;17.80;1.00;;;;;;5034692;28;20459;-81
2023/07/14 02:34:41;;;;;;;6.10;5.60;;;17.70;1.00;;;;;;5034018;28;20504;-83
2023/07/14 02:38:00;;;;;;;7.17;5.63;;;17.70;1.00;;;;;;5031823;28;20978;-83
2023/07/14 02:40:30;;;;;;;6.80;6.20;;;17.60;1.00;;;;;;5033524;28;20507;-84
2023/07/14 02:42:57;;;;;;;10.77;7.53;;;17.60;1.00;;;;;;5028509;28;20464;-82
2023/07/14 02:45:28;;;;;;;6.97;6.33;;;17.60;1.00;;;;;;5031275;28;20466;-82
2023/07/14 02:47:59;;;;;;;8.00;7.20;;;17.50;1.00;;;;;;5031503;28;21374;-83
2023/07/14 02:50:27;;;;;;;8.67;6.73;;;17.60;1.00;;;;;;5033757;28;20548;-82
2023/07/14 02:52:55;;;;;;;7.30;6.60;;;17.50;1.00;;;;;;5033016;28;20469;-83
2023/07/14 02:55:22;;;;;;;7.80;5.60;;;17.50;1.00;;;;;;5033236;28;20496;-82
2023/07/14 02:57:49;;;;;;;6.50;5.90;;;17.50;1.00;;;;;;5018298;28;20535;-83
2023/07/14 03:00:18;;;;;;;8.27;5.70;;;17.50;1.00;;;;;;5039389;28;20849;-83
2023/07/14 03:02:50;;;;;;;7.60;6.90;;;17.50;1.00;;;;;;5026594;28;20914;-83
2023/07/14 03:05:20;;;;;;;7.97;7.23;;;17.50;1.00;;;;;;5033442;28;20560;-83
2023/07/14 03:07:54;;;;;;;6.77;6.17;;;17.40;1.00;;;;;;5027301;28;20510;-83
2023/07/14 03:10:21;;;;;;;6.00;5.50;;;17.40;1.00;;;;;;5027959;28;20553;-81
2023/07/14 03:12:48;;;;;;;7.57;5.93;;;17.40;1.00;;;;;;5022875;28;20537;-83
2023/07/14 03:15:15;;;;;;;7.47;5.70;;;17.40;1.00;;;;;;5027440;28;20427;-83
2023/07/14 03:17:42;;;;;;;5.97;5.47;;;17.40;1.00;;;;;;5022989;28;20950;-83
2023/07/14 03:20:14;;;;;;;5.77;5.27;;;17.40;1.00;;;;;;5032477;28;20576;-83
2023/07/14 03:22:41;;;;;;;5.60;5.10;;;17.40;1.00;;;;;;5030367;28;20442;-83
2023/07/14 03:25:09;;;;;;;6.90;5.17;;;17.50;1.00;;;;;;5026903;28;21381;-83
2023/07/14 03:27:36;;;;;;;5.20;4.70;;;17.60;1.00;;;;;;5030215;28;20461;-84
2023/07/14 03:30:06;;;;;;;5.53;4.90;;;17.60;1.00;;;;;;5027596;28;20499;-83
2023/07/14 03:32:35;;;;;;;6.60;5.50;;;17.60;1.00;;;;;;5029739;28;20513;-83
2023/07/14 03:35:03;;;;;;;8.03;7.30;;;17.70;1.00;;;;;;5034178;28;20469;-83
2023/07/14 03:37:40;;;;;;;5.37;4.90;;;17.70;1.00;;;;;;5030214;28;20427;-82
2023/07/14 03:40:11;;;;;;;5.50;4.93;;;17.80;1.00;;;;;;5031613;28;20477;-82
2023/07/14 03:42:43;;;;;;;5.90;5.30;;;17.80;1.00;;;;;;5028017;28;20426;-84
2023/07/14 03:45:11;;;;;;;6.57;5.67;;;17.90;1.00;;;;;;5029345;28;20781;-82
2023/07/14 03:47:39;;;;;;;6.03;5.43;;;17.80;1.00;;;;;;5012275;28;20493;-82
2023/07/14 03:50:11;;;;;;;6.77;5.17;;;17.80;1.00;;;;;;5035956;28;20449;-83
2023/07/14 03:52:41;;;;;;;5.70;5.17;;;17.80;1.00;;;;;;5037160;28;20458;-83
2023/07/14 03:55:11;;;;;;;6.70;5.37;;;17.80;1.00;;;;;;5030155;28;20454;-88
2023/07/14 03:57:38;;;;;;;6.67;5.20;;;17.80;1.00;;;;;;5030119;28;20519;-87
2023/07/14 04:00:14;;;;;;;7.10;5.00;;;17.80;1.00;;;;;;5031105;28;20458;-86
2023/07/14 04:02:41;;;;;;;5.37;4.87;;;17.80;1.00;;;;;;5028889;28;22846;-87
2023/07/14 04:05:09;;;;;;;5.80;4.97;;;17.80;1.00;;;;;;5027975;28;20586;-88
2023/07/14 04:07:37;;;;;;;5.67;5.10;;;17.80;1.00;;;;;;5034852;28;20453;-87
2023/07/14 04:10:08;;;;;;;6.40;5.60;;;17.80;1.00;;;;;;5016606;28;20550;-87
2023/07/14 04:12:35;;;;;;;5.80;5.30;;;17.80;1.00;;;;;;5029936;28;20561;-87
2023/07/14 04:15:03;;;;;;;6.07;5.57;;;17.80;1.00;;;;;;5022421;28;20807;-87
2023/07/14 04:17:31;;;;;;;5.90;5.40;;;17.80;1.00;;;;;;5034004;28;20487;-87
2023/07/14 04:19:58;;;;;;;5.13;4.67;;;17.70;1.00;;;;;;5026211;28;20586;-86
2023/07/14 04:22:25;;;;;;;5.93;5.33;;;17.70;1.00;;;;;;5034437;28;20540;-87
2023/07/14 04:24:53;;;;;;;8.30;5.80;;;17.80;1.00;;;;;;5035595;28;21037;-87
2023/07/14 04:27:21;;;;;;;5.90;4.70;;;17.80;1.00;;;;;;5017584;28;20418;-86
2023/07/14 04:29:49;;;;;;;5.70;5.20;;;17.80;1.00;;;;;;5032798;28;20506;-86
2023/07/14 04:32:15;;;;;;;5.27;4.77;;;17.90;1.00;;;;;;5029177;28;21261;-86
2023/07/14 04:34:44;;;;;;;7.10;5.70;;;17.90;1.00;;;;;;5034392;28;20494;-89
2023/07/14 04:37:13;;;;;;;5.67;4.77;;;17.90;1.00;;;;;;5032580;28;20458;-86
2023/07/14 04:39:40;;;;;;;5.70;5.20;;;17.80;1.00;;;;;;5034031;28;20462;-87
2023/07/14 04:42:08;;;;;;;6.80;4.93;;;17.80;1.00;;;;;;5036580;28;20469;-87
2023/07/14 04:44:37;;;;;;;5.87;5.37;;;17.80;1.00;;;;;;5036881;28;20466;-86
2023/07/14 04:47:05;;;;;;;5.90;5.37;;;17.80;1.00;;;;;;5037182;28;20580;-86
2023/07/14 04:49:37;;;;;;;6.20;5.53;;;17.80;1.00;;;;;;5030324;28;20913;-87
2023/07/14 04:52:05;;;;;;;7.70;5.40;;;17.80;1.00;;;;;;5028996;28;20554;-87
2023/07/14 04:54:32;;;;;;;7.50;5.90;;;17.80;1.00;;;;;;5038929;28;21320;-88
2023/07/14 04:57:01;;;;;;;7.43;6.73;;;17.80;1.00;;;;;;5029036;28;20458;-87
2023/07/14 04:59:31;;;;;;;9.47;6.37;;;17.80;1.00;;;;;;5029411;28;20483;-88
2023/07/14 05:02:00;;;;;;;7.27;6.60;;;17.80;1.00;;;;;;5020737;28;20543;-87
2023/07/14 05:04:29;;;;;;;8.30;7.50;;;17.70;1.00;;;;;;5026098;28;22855;-87
2023/07/14 05:06:56;;;;;;;8.50;7.50;;;17.70;1.00;;;;;;5025803;28;20462;-89
2023/07/14 05:09:24;;;;;;;7.60;6.77;;;17.60;1.00;;;;;;5022389;28;20919;-87
2023/07/14 05:11:51;;;;;;;9.27;7.60;;;17.60;1.00;;;;;;5025843;28;20488;-86
2023/07/14 05:14:18;;;;;;;7.60;6.90;;;17.50;1.00;;;;;;5028505;28;20469;-87
2023/07/14 05:16:45;;;;;;;7.07;6.47;;;17.60;1.00;;;;;;5031527;28;20483;-86
2023/07/14 05:19:14;;;;;;;8.50;5.87;;;17.70;1.00;;;;;;5030651;28;20557;-87
2023/07/14 05:21:42;;;;;;;9.40;6.60;;;17.70;1.00;;;;;;5035637;28;20465;-87
2023/07/14 05:24:09;;;;;;;8.27;7.07;;;17.80;1.00;;;;;;5031230;28;20462;-87
2023/07/14 05:26:36;;;;;;;6.83;6.23;;;17.80;1.00;;;;;;5027473;28;20473;-87
2023/07/14 05:29:05;;;;;;;7.60;6.27;;;17.90;1.00;;;;;;5031096;28;20479;-87
2023/07/14 05:31:33;;;;;;;6.17;5.67;;;18.00;1.00;;;;;;5027430;28;20481;-87
2023/07/14 05:34:09;;;;;;;5.70;5.07;;;18.10;1.00;;;;;;5026022;28;20517;-86
2023/07/14 05:36:38;;;;;;;5.50;5.00;;;18.30;1.00;;;;;;5024213;28;20481;-86
2023/07/14 05:39:07;;;;;;;7.10;6.40;;;18.40;1.00;;;;;;5025028;28;20529;-86
2023/07/14 05:41:34;;;;;;;6.17;5.37;;;18.50;1.00;;;;;;5033562;28;20461;-86
2023/07/14 05:44:04;;;;;;;5.10;4.60;;;18.60;1.00;;;;;;5037451;28;20517;-88
2023/07/14 05:46:31;;;;;;;7.40;5.73;;;18.70;1.00;;;;;;5034562;28;21106;-89
2023/07/14 05:49:01;;;;;;;6.10;5.50;;;18.80;1.00;;;;;;5038590;28;20470;-85
2023/07/14 05:51:29;;;;;;;7.97;6.00;;;18.80;1.00;;;;;;5033738;28;20461;-87
2023/07/14 05:53:58;;;;;;;8.20;5.93;;;19.00;1.00;;;;;;5043277;28;20543;-81
2023/07/14 05:56:25;;;;;;;9.70;5.63;;;19.10;1.00;;;;;;5021782;28;20451;-82
2023/07/14 05:58:58;;;;;;;6.93;5.30;;;19.20;1.00;;;;;;5029538;28;20537;-81
2023/07/14 06:01:27;;;;;;;6.23;5.57;;;19.30;1.00;;;;;;5028475;28;20568;-80
2023/07/14 06:03:54;;;;;;;5.23;4.77;;;19.40;1.00;;;;;;5029296;28;21347;-81
2023/07/14 06:06:26;;;;;;;9.20;5.30;;;19.40;1.00;;;;;;5023202;28;20461;-78
2023/07/14 06:08:55;;;;;;;5.90;5.40;;;19.50;1.00;;;;;;5024477;28;20574;-82
2023/07/14 06:11:25;;;;;;;6.47;5.87;;;19.50;1.00;;;;;;5008896;28;20963;-80
2023/07/14 06:13:52;;;;;;;9.87;5.90;;;19.60;1.00;;;;;;5028486;28;21826;-80
2023/07/14 06:16:20;;;;;;;6.40;5.90;;;19.70;1.00;;;;;;5029090;28;20549;-80
2023/07/14 06:18:49;;;;;;;7.57;5.70;;;19.70;1.00;;;;;;5027172;28;20546;-81
2023/07/14 06:21:17;;;;;;;8.13;5.10;;;19.80;1.00;;;;;;5029483;28;20876;-80
2023/07/14 06:23:44;;;;;;;5.77;5.23;;;19.90;1.00;;;;;;5031967;28;20459;-80
2023/07/14 06:26:12;;;;;;;7.43;6.10;;;20.00;1.00;;;;;;5030238;28;21347;-81
2023/07/14 06:28:42;;;;;;;4.90;4.50;;;20.00;1.00;;;;;;5024524;28;20504;-82
2023/07/14 06:31:13;;;;;;;5.30;4.43;;;20.10;1.00;;;;;;5030284;28;20437;-80
2023/07/14 06:33:40;;;;;;;6.47;5.83;;;20.10;1.00;;;;;;5025919;28;20484;-83
2023/07/14 06:36:08;;;;;;;5.30;4.87;;;20.00;1.00;;;;;;5019674;28;20489;-81
2023/07/14 06:41:26;;;;;;;5.67;4.97;;;20.10;1.00;;;;;;5034775;28;20457;-85
2023/07/14 06:43:54;;;;;;;6.90;5.70;;;20.30;1.00;;;;;;5026787;28;20481;-85
2023/07/14 06:46:22;;;;;;;6.03;5.43;;;20.40;1.00;;;;;;5027329;28;20476;-86
2023/07/14 06:48:49;;;;;;;5.87;5.23;;;20.50;1.00;;;;;;5030776;28;22497;-85
2023/07/14 06:51:16;;;;;;;6.10;4.23;;;20.60;1.00;;;;;;5027690;28;20464;-86
2023/07/14 06:53:43;;;;;;;7.53;5.40;;;20.50;1.00;;;;;;5033950;28;20537;-88
2023/07/14 06:56:13;;;;;;;6.70;5.60;;;20.60;1.00;;;;;;5032715;28;20516;-83
2023/07/14 06:58:48;;;;;;;5.03;4.13;;;20.70;1.00;;;;;;5033245;28;22174;-82
2023/07/14 07:01:26;;;;;;;5.70;5.10;;;20.80;1.00;;;;;;5034660;28;20445;-85
2023/07/14 07:03:53;;;;;;;6.40;5.33;;;20.70;1.00;;;;;;5029314;28;20524;-86
2023/07/14 07:06:22;;;;;;;6.73;5.27;;;20.80;1.00;;;;;;5027494;28;21407;-84
2023/07/14 07:08:49;;;;;;;5.10;4.60;;;20.90;1.00;;;;;;5030967;28;21307;-84
2023/07/14 07:11:16;;;;;;;4.30;4.00;;;21.00;1.00;;;;;;5026085;28;20851;-83
2023/07/14 07:13:43;;;;;;;5.70;4.50;;;21.00;1.00;;;;;;5027033;28;20536;-84
2023/07/14 07:16:13;;;;;;;5.20;4.80;;;21.20;1.00;;;;;;5033980;28;20511;-85
2023/07/14 07:18:43;;;;;;;7.67;5.40;;;21.20;1.00;;;;;;5034446;28;20482;-84
2023/07/14 07:21:12;;;;;;;7.73;5.20;;;21.30;1.00;;;;;;5032716;28;20565;-83
2023/07/14 07:23:41;;;;;;;9.50;8.40;;;21.40;1.00;;;;;;5031367;28;20549;-81
2023/07/14 07:26:12;;;;;;;5.37;4.30;;;21.40;1.00;;;;;;5028996;28;20470;-82
2023/07/14 07:28:39;;;;;;;5.23;4.67;;;21.40;1.00;;;;;;5026369;28;20476;-82
2023/07/14 07:31:09;;;;;;;7.03;4.30;;;21.40;1.00;;;;;;5029367;28;20466;-83
2023/07/14 07:33:39;;;;;;;4.90;4.47;;;21.40;1.00;;;;;;5037651;28;20463;-82
2023/07/14 07:36:15;;;;;;;5.27;4.20;;;21.40;1.00;;;;;;5034339;28;20423;-82
2023/07/14 07:38:47;;;;;;;5.80;4.40;;;21.40;1.00;;;;;;5032050;28;20475;-81
2023/07/14 07:41:17;;;;;;;5.43;4.07;;;21.50;1.00;;;;;;5032189;28;20463;-83
2023/07/14 07:43:49;;;;;;;4.70;4.30;;;21.60;1.00;;;;;;5033075;28;20476;-83
2023/07/14 07:46:16;;;;;;;5.90;3.80;;;21.80;1.00;;;;;;5038277;28;20503;-86
2023/07/14 07:48:47;;;;;;;5.23;4.10;;;21.80;1.00;;;;;;5038138;28;20493;-86
2023/07/14 07:51:30;;;;;;;4.90;4.30;;;21.90;1.00;;;;;;5025008;28;20469;-87
2023/07/14 07:54:00;;;;;;;6.57;3.83;;;21.90;1.00;;;;;;5034689;28;20461;-85
2023/07/14 07:56:28;;;;;;;6.70;3.93;;;22.00;1.00;;;;;;5031896;28;20479;-82
2023/07/14 07:58:59;;;;;;;5.63;4.10;;;21.80;1.00;;;;;;5035325;28;20454;-82
2023/07/14 08:01:28;;;;;;;3.67;3.37;;;21.90;1.00;;;;;;5029353;28;20488;-84
2023/07/14 08:04:08;;;;;;;6.80;3.67;;;22.10;1.00;;;;;;5034383;28;20493;-84
2023/07/14 08:07:07;;;;;;;4.37;3.20;;;22.20;1.00;;;;;;5018752;28;20481;-83
2023/07/14 08:09:36;;;;;;;5.57;4.90;;;22.30;1.00;;;;;;5032761;28;20484;-84
2023/07/14 08:12:04;;;;;;;4.90;3.20;;;22.20;1.00;;;;;;5029627;28;20467;-85
2023/07/14 08:14:34;;;;;;;5.20;3.70;;;22.30;1.00;;;;;;5029394;28;20513;-83
2023/07/14 08:17:06;;;;;;;3.70;3.30;;;22.40;1.00;;;;;;5016452;28;20460;-84
2023/07/14 08:19:36;;;;;;;4.03;3.00;;;22.50;1.00;;;;;;5029651;28;21200;-82
2023/07/14 08:22:21;;;;;;;4.97;3.77;;;22.70;1.00;;;;;;5028798;28;20842;-83
2023/07/14 08:24:48;;;;;;;4.53;3.37;;;22.90;1.00;;;;;;5026361;28;20460;-80
2023/07/14 08:27:15;;;;;;;3.70;3.00;;;23.10;1.00;;;;;;5029613;28;20476;-81
2023/07/14 08:29:42;;;;;;;3.90;3.13;;;23.20;1.00;;;;;;5026766;28;20572;-80
2023/07/14 08:32:10;;;;;;;3.90;3.00;;;23.30;1.00;;;;;;5029313;28;20477;-80
2023/07/14 08:34:37;;;;;;;4.10;3.30;;;23.40;1.00;;;;;;5029826;28;20438;-82
2023/07/14 08:37:07;;;;;;;6.13;3.10;;;23.60;1.00;;;;;;5030852;28;20487;-81
2023/07/14 08:39:34;;;;;;;2.80;2.60;;;23.80;1.00;;;;;;5021404;28;20471;-79
2023/07/14 08:42:07;;;;;;;5.50;3.33;;;23.90;1.00;;;;;;5030818;28;21181;-80
2023/07/14 08:44:50;;;;;;;5.17;2.90;;;24.00;1.00;;;;;;5024580;28;20845;-79
2023/07/14 08:47:27;;;;;;;4.20;2.60;;;23.80;1.00;;;;;;5028558;28;20554;-80
2023/07/14 08:49:59;;;;;;;3.93;2.80;;;23.70;1.00;;;;;;5030054;28;20458;-82
2023/07/14 08:52:36;;;;;;;6.03;3.00;;;23.80;1.00;;;;;;5026510;28;20470;-82
2023/07/14 08:55:15;;;;;;;2.70;2.17;;;23.90;1.00;;;;;;5029906;28;20598;-80
2023/07/14 08:57:47;;;;;;;2.80;2.60;;;24.20;1.00;;;;;;5022823;28;20533;-83
2023/07/14 09:00:21;;;;;;;5.70;3.07;;;24.30;1.00;;;;;;5026935;28;20533;-83
2023/07/14 09:03:00;;;;;;;2.97;2.37;;;24.30;1.00;;;;;;5027636;28;20483;-83
2023/07/14 09:05:28;;;;;;;6.23;2.80;;;24.50;1.00;;;;;;5023580;28;20855;-81
2023/07/14 09:07:57;;;;;;;3.30;2.67;;;24.70;1.00;;;;;;5033592;28;20545;-80
2023/07/14 09:10:40;;;;;;;4.40;2.57;;;24.90;1.00;;;;;;5030407;28;20470;-81
2023/07/14 09:13:17;;;;;;;3.23;2.57;;;24.90;1.00;;;;;;5018416;28;20527;-79
2023/07/14 09:15:48;;;;;;;2.57;2.37;;;25.10;1.00;;;;;;5029060;28;20465;-80
2023/07/14 09:18:27;;;;;;;2.90;2.40;;;25.30;1.00;;;;;;5030878;28;20529;-83
2023/07/14 09:21:07;;;;;;;3.17;2.90;;;25.30;1.00;;;;;;5028136;28;20484;-80
2023/07/14 09:24:13;;;;;;;3.10;2.80;;;25.30;1.00;;;;;;5030098;28;20532;-79
2023/07/14 09:26:46;;;;;;;3.13;2.40;;;25.50;1.00;;;;;;5030179;28;20462;-81
2023/07/14 09:29:19;;;;;;;3.80;2.17;;;25.40;1.00;;;;;;5025421;28;20503;-87
2023/07/14 09:31:53;;;;;;;3.07;2.70;;;25.20;1.00;;;;;;5038290;28;20917;-83
2023/07/14 09:34:27;;;;;;;3.37;2.60;;;25.20;1.00;;;;;;5026287;28;20966;-83
2023/07/14 09:36:58;;;;;;;4.73;2.70;;;25.40;1.00;;;;;;5037059;28;20454;-81
2023/07/14 09:39:34;;;;;;;5.60;2.23;;;25.60;1.00;;;;;;5030862;28;20685;-82
2023/07/14 09:42:07;;;;;;;2.57;2.37;;;25.80;1.00;;;;;;5031133;28;20534;-84
2023/07/14 09:44:36;;;;;;;3.17;2.70;;;26.60;1.00;;;;;;5027187;28;20460;-82
2023/07/14 09:47:05;;;;;;;2.83;2.03;;;28.00;1.00;;;;;;5029159;28;20470;-85
2023/07/14 09:49:39;;;;;;;3.83;2.23;;;29.10;1.00;;;;;;5028942;28;20550;-82
2023/07/14 09:52:15;;;;;;;3.10;1.97;;;30.40;1.00;;;;;;5031451;28;20888;-82
2023/07/14 09:54:52;;;;;;;4.00;2.67;;;30.90;1.00;;;;;;5032279;28;20978;-83
2023/07/14 09:57:21;;;;;;;3.23;2.27;;;30.60;1.00;;;;;;5029418;28;20526;-79
2023/07/14 09:59:56;;;;;;;4.53;2.60;;;29.30;1.00;;;;;;5001129;28;20475;-79
2023/07/14 10:02:30;;;;;;;4.43;2.37;;;28.90;1.00;;;;;;5017236;28;20556;-80
2023/07/14 10:05:03;;;;;;;2.70;2.27;;;28.90;1.00;;;;;;5043104;28;20972;-84
2023/07/14 10:07:40;;;;;;;3.70;2.13;;;29.00;1.00;;;;;;5029270;28;20455;-85
2023/07/14 10:10:14;;;;;;;4.37;2.97;;;28.60;1.00;;;;;;5032610;28;20503;-81
2023/07/14 10:12:47;;;;;;;4.93;2.50;;;28.80;1.00;;;;;;5036354;28;20474;-87
2023/07/14 10:15:33;;;;;;;2.40;2.20;;;30.10;1.00;;;;;;5035776;28;20441;-87
2023/07/14 10:18:07;;;;;;;2.40;2.20;;;31.70;1.00;;;;;;5033074;28;20921;-85
2023/07/14 10:20:36;;;;;;;4.40;2.73;;;33.00;1.00;;;;;;5015404;28;20473;-86
2023/07/14 10:23:12;;;;;;;6.73;3.50;;;33.90;1.00;;;;;;5025159;28;21045;-84
2023/07/14 10:25:41;;;;;;;2.27;2.10;;;34.70;1.00;;;;;;5020585;28;20480;-84
2023/07/14 10:28:17;;;;;;;4.93;3.77;;;35.20;1.00;;;;;;5044998;28;20563;-83
2023/07/14 10:31:01;;;;;;;2.70;2.07;;;35.10;1.00;;;;;;5033063;28;20444;-85
2023/07/14 10:33:38;;;;;;;3.17;2.87;;;33.80;1.00;;;;;;5032564;28;21096;-83
2023/07/14 10:36:13;;;;;;;3.60;2.40;;;34.40;1.00;;;;;;5032514;28;20456;-85
2023/07/14 10:38:45;;;;;;;2.57;1.90;;;34.80;1.00;;;;;;5033914;28;20465;-87
2023/07/14 10:41:26;;;;;;;2.33;2.13;;;35.40;1.00;;;;;;5037543;28;20434;-88
2023/07/14 10:43:57;;;;;;;2.50;2.17;;;35.70;1.00;;;;;;5031431;28;21322;-84
2023/07/14 10:46:28;;;;;;;2.40;2.20;;;35.80;1.00;;;;;;5031265;28;20469;-83
2023/07/14 10:49:05;;;;;;;4.00;2.10;;;35.80;1.00;;;;;;5032963;28;20433;-86
2023/07/14 10:51:43;;;;;;;2.23;2.03;;;36.10;1.00;;;;;;5024473;28;20465;-85
2023/07/14 10:54:16;;;;;;;3.30;2.60;;;36.50;1.00;;;;;;5033748;28;20513;-85
2023/07/14 10:56:55;;;;;;;2.93;2.63;;;35.20;1.00;;;;;;5028669;28;20452;-86
2023/07/14 10:59:29;;;;;;;2.53;2.17;;;33.60;1.00;;;;;;5043304;28;21367;-86
2023/07/14 11:02:22;;;;;;;2.40;2.20;;;32.80;1.00;;;;;;5032233;28;20468;-86
2023/07/14 11:04:55;;;;;;;2.97;2.47;;;34.20;1.00;;;;;;5003223;28;20567;-83
2023/07/14 11:07:28;;;;;;;2.90;2.60;;;35.50;1.00;;;;;;5038019;28;20456;-85
2023/07/14 11:09:56;;;;;;;3.03;2.73;;;36.50;1.00;;;;;;5025332;28;20581;-85
2023/07/14 11:12:33;;;;;;;4.37;2.70;;;37.40;1.00;;;;;;5025735;28;20516;-84
2023/07/14 11:15:16;;;;;;;4.87;2.40;;;38.20;1.00;;;;;;5011682;28;20484;-81
2023/07/14 11:17:54;;;;;;;7.83;3.10;;;38.70;1.00;;;;;;5039243;28;20976;-81
2023/07/14 11:20:29;;;;;;;2.40;2.20;;;38.80;1.00;;;;;;5031655;28;20588;-82
2023/07/14 11:23:24;;;;;;;3.10;2.80;;;38.00;1.00;;;;;;5021618;28;20431;-86
2023/07/14 11:26:01;;;;;;;4.50;2.47;;;36.40;1.00;;;;;;5030969;28;20433;-84
2023/07/14 11:28:41;;;;;;;2.70;2.50;;;36.20;1.00;;;;;;5030220;28;20433;-80
2023/07/14 11:31:20;;;;;;;6.93;3.60;;;37.10;1.00;;;;;;5028956;28;20449;-81
2023/07/14 11:33:55;;;;;;;8.33;3.27;;;37.80;1.00;;;;;;5032443;28;20817;-80
2023/07/14 11:36:29;;;;;;;4.30;3.60;;;37.50;1.00;;;;;;5038485;28;20469;-78
2023/07/14 11:39:03;;;;;;;4.33;3.50;;;36.30;1.00;;;;;;5028492;28;20420;-80
2023/07/14 11:41:35;;;;;;;2.93;2.70;;;35.50;1.00;;;;;;5029055;28;20466;-80
2023/07/14 11:44:09;;;;;;;3.07;2.40;;;35.80;1.00;;;;;;5031499;28;21201;-80
2023/07/14 11:46:37;;;;;;;4.33;3.23;;;36.20;1.00;;;;;;5021673;28;20579;-82
2023/07/14 11:49:07;;;;;;;4.27;2.90;;;36.80;1.00;;;;;;5025635;28;20759;-80
2023/07/14 11:51:50;;;;;;;3.50;2.30;;;37.80;1.00;;;;;;5030525;28;20526;-80
2023/07/14 11:54:19;;;;;;;3.10;2.50;;;38.50;1.00;;;;;;5034001;28;20464;-79
2023/07/14 11:57:07;;;;;;;3.93;3.03;;;38.80;1.00;;;;;;5032381;28;20433;-80
2023/07/14 12:00:01;;;;;;;3.23;2.97;;;38.70;1.00;;;;;;5033527;28;20524;-81
2023/07/14 12:02:37;;;;;;;2.60;2.40;;;38.80;1.00;;;;;;5032950;28;20962;-81
2023/07/14 12:05:33;;;;;;;3.07;2.77;;;38.30;1.00;;;;;;5016870;28;21015;-81
2023/07/14 12:08:19;;;;;;;2.77;2.57;;;38.00;1.00;;;;;;5018920;28;20441;-80
2023/07/14 12:10:48;;;;;;;4.03;2.60;;;37.50;1.00;;;;;;5019477;28;20519;-81
2023/07/14 12:13:27;;;;;;;2.83;2.53;;;36.50;1.00;;;;;;5020772;28;20848;-80
2023/07/14 12:16:15;;;;;;;2.70;2.40;;;37.20;1.00;;;;;;5028928;28;21292;-81
2023/07/14 12:19:01;;;;;;;4.50;2.80;;;37.90;1.00;;;;;;5028562;28;20647;-79
2023/07/14 12:21:42;;;;;;;3.00;2.70;;;37.30;1.00;;;;;;5028012;28;20481;-81
2023/07/14 12:24:17;;;;;;;3.60;2.53;;;37.10;1.00;;;;;;5033052;28;20508;-79
2023/07/14 12:26:51;;;;;;;4.23;3.00;;;37.80;1.00;;;;;;5031539;28;20543;-80
2023/07/14 12:29:21;;;;;;;4.47;2.67;;;38.30;1.00;;;;;;5029879;28;20598;-80
2023/07/14 12:31:58;;;;;;;3.40;3.10;;;39.10;1.00;;;;;;5028184;28;20457;-80
2023/07/14 12:34:30;;;;;;;4.33;2.93;;;38.70;1.00;;;;;;5028387;28;20523;-80
2023/07/14 12:37:02;;;;;;;3.07;2.87;;;38.00;1.00;;;;;;5023675;28;20524;-81
2023/07/14 12:39:30;;;;;;;4.93;3.70;;;38.60;1.00;;;;;;5023326;28;20507;-82
2023/07/14 12:42:01;;;;;;;3.67;3.37;;;39.20;1.00;;;;;;5026660;28;20461;-81
2023/07/14 12:44:33;;;;;;;3.67;3.00;;;38.50;1.00;;;;;;5028313;28;20474;-81
2023/07/14 12:47:15;;;;;;;3.07;2.57;;;37.40;1.00;;;;;;5029036;28;20472;-81
2023/07/14 12:49:47;;;;;;;3.70;3.40;;;37.70;1.00;;;;;;5028999;28;20556;-79
2023/07/14 12:52:17;;;;;;;3.30;3.00;;;38.20;1.00;;;;;;5032553;28;20465;-80
2023/07/14 12:54:47;;;;;;;3.47;3.17;;;38.00;1.00;;;;;;5027451;28;20454;-80
2023/07/14 12:57:20;;;;;;;3.33;2.83;;;36.20;1.00;;;;;;5028065;28;20477;-79
2023/07/14 12:59:52;;;;;;;3.00;2.80;;;35.50;1.00;;;;;;5031150;28;20472;-80
2023/07/14 13:02:22;;;;;;;3.83;3.40;;;35.90;1.00;;;;;;5028612;28;20470;-81
2023/07/14 13:04:49;;;;;;;3.53;3.23;;;36.10;1.00;;;;;;5024689;28;20972;-81
2023/07/14 13:07:20;;;;;;;3.80;3.00;;;35.70;1.00;;;;;;5032054;28;20457;-80
2023/07/14 13:09:58;;;;;;;3.53;2.70;;;35.70;1.00;;;;;;5028534;28;20498;-81
2023/07/14 13:12:25;;;;;;;4.03;3.30;;;36.30;1.00;;;;;;5026487;28;20453;-81
2023/07/14 13:14:56;;;;;;;4.93;4.47;;;37.60;1.00;;;;;;5028708;28;20563;-81
2023/07/14 13:17:26;;;;;;;3.43;3.17;;;38.70;1.00;;;;;;5025353;28;20465;-81
2023/07/14 13:19:54;;;;;;;3.37;3.17;;;38.50;1.00;;;;;;5030289;28;20472;-81
2023/07/14 13:22:23;;;;;;;4.23;3.93;;;37.10;1.00;;;;;;5028440;28;21037;-79
2023/07/14 13:25:04;;;;;;;3.90;3.50;;;35.50;1.00;;;;;;5032091;28;20499;-81
2023/07/14 13:27:31;;;;;;;4.43;3.43;;;34.00;1.00;;;;;;5030930;28;20551;-80
2023/07/14 13:30:00;;;;;;;4.20;3.87;;;33.50;1.00;;;;;;5029429;28;20564;-80
2023/07/14 13:32:29;;;;;;;5.57;4.67;;;33.20;1.00;;;;;;5026688;28;20532;-80
2023/07/14 13:34:59;;;;;;;4.07;3.67;;;33.90;1.00;;;;;;5026967;28;20899;-81
2023/07/14 13:37:29;;;;;;;4.30;4.00;;;34.60;1.00;;;;;;5023227;28;20500;-80
2023/07/14 13:39:57;;;;;;;4.00;3.70;;;35.90;1.00;;;;;;5024706;28;20920;-80
2023/07/14 13:42:29;;;;;;;6.53;3.97;;;37.40;1.00;;;;;;5031607;28;20524;-80
2023/07/14 13:45:03;;;;;;;5.10;4.70;;;37.90;1.00;;;;;;5030080;28;20461;-81
2023/07/14 13:47:42;;;;;;;4.07;3.67;;;36.70;1.00;;;;;;5024265;28;20504;-80